Time;durP1;ratioP1;P1;durP2;ratioP2;P2;SDS_P1;SDS_P2;PMS_P1;PMS_P2;Temp;Humidity;BMP_temperature;BMP_pressure;BME280_temperature;BME280_humidity;BME280_pressure;Samples;Min_cycle;Max_cycle;Signal;HPM_P1;HPM_P2
2023/01/05 00:02:16;;;;;;;5.20;0.50;;;;;;;9.13;89.56;99622.95;102859;1305;24351;-62
2023/01/05 00:04:48;;;;;;;3.70;0.50;;;;;;;9.10;89.71;99611.11;102786;1280;27251;-61
2023/01/05 00:07:19;;;;;;;4.50;0.50;;;;;;;9.08;89.92;99602.16;102990;1277;24200;-59
2023/01/05 00:09:49;;;;;;;2.50;0.80;;;;;;;9.06;89.84;99600.25;102815;1305;22473;-59
2023/01/05 00:23:35;;;;;;;3.10;0.50;;;;;;;8.95;90.43;99566.88;102812;1283;22519;-60
2023/01/05 00:26:06;;;;;;;2.20;0.50;;;;;;;8.94;90.36;99566.92;102825;1305;22466;-61
2023/01/05 00:28:37;;;;;;;3.50;0.50;;;;;;;8.92;90.53;99564.38;102840;1305;22518;-63
2023/01/05 00:31:08;;;;;;;4.10;0.70;;;;;;;8.91;90.38;99557.52;102950;1291;22668;-61
2023/01/05 00:33:39;;;;;;;2.80;0.40;;;;;;;8.91;90.42;99565.91;103019;1277;24399;-63
2023/01/05 00:36:12;;;;;;;1.60;0.30;;;;;;;8.91;90.29;99568.60;102946;1284;24455;-61
2023/01/05 00:38:43;;;;;;;1.40;0.30;;;;;;;8.92;90.24;99565.02;103001;1283;22476;-62
2023/01/05 00:41:14;;;;;;;6.00;0.40;;;;;;;8.92;90.28;99560.56;102860;1280;22484;-63
2023/01/05 00:43:45;;;;;;;1.80;0.20;;;;;;;8.93;90.21;99560.68;102786;1277;273047;-60
2023/01/05 00:46:17;;;;;;;2.00;0.30;;;;;;;8.94;90.07;99545.16;102885;1283;24466;-62
2023/01/05 00:48:48;;;;;;;1.50;0.20;;;;;;;8.96;90.03;99546.55;102822;1299;22479;-61
2023/01/05 00:51:19;;;;;;;1.70;0.20;;;;;;;8.97;89.99;99547.27;102812;1284;25125;-61
2023/01/05 00:53:50;;;;;;;1.60;0.30;;;;;;;8.98;90.03;99547.84;102834;1305;24414;-63
2023/01/05 00:56:21;;;;;;;1.40;0.20;;;;;;;9.00;89.97;99548.53;102872;1291;24425;-62
2023/01/05 00:58:56;;;;;;;0.80;0.20;;;;;;;9.03;89.87;99547.35;102975;1285;23092;-61
2023/01/05 01:01:27;;;;;;;2.00;0.30;;;;;;;9.06;89.83;99541.43;102816;1280;25226;-62
2023/01/05 01:03:58;;;;;;;1.80;0.20;;;;;;;9.09;89.90;99540.25;102989;1284;22466;-62
2023/01/05 01:06:30;;;;;;;1.70;0.20;;;;;;;9.11;89.87;99539.93;102778;1283;24322;-61
2023/01/05 01:09:01;;;;;;;1.20;0.30;;;;;;;9.12;90.03;99536.05;102854;1283;24354;-63
2023/01/05 01:11:32;;;;;;;3.50;0.30;;;;;;;9.13;90.00;99534.48;102824;1305;22474;-60
2023/01/05 01:14:03;;;;;;;1.70;0.20;;;;;;;9.14;90.17;99538.20;102799;1291;22482;-60
2023/01/05 01:16:35;;;;;;;2.50;0.30;;;;;;;9.15;90.07;99534.92;102771;1305;25261;-62
2023/01/05 01:19:05;;;;;;;3.50;0.20;;;;;;;9.18;90.03;99530.45;102833;1276;25620;-61
2023/01/05 01:21:37;;;;;;;0.40;0.10;;;;;;;9.22;89.70;99527.77;102813;1306;23089;-63
2023/01/05 01:24:08;;;;;;;0.30;0.10;;;;;;;9.27;89.38;99531.03;102965;1278;24435;-63
2023/01/05 01:26:39;;;;;;;2.10;0.10;;;;;;;9.36;88.97;99530.17;102915;1283;22484;-61
2023/01/05 01:29:10;;;;;;;1.40;0.10;;;;;;;9.45;88.63;99526.23;102821;1283;25361;-63
2023/01/05 01:31:42;;;;;;;1.00;0.10;;;;;;;9.53;88.19;99529.27;102813;1276;22454;-63
2023/01/05 01:34:13;;;;;;;0.90;0.20;;;;;;;9.60;88.16;99528.20;102877;1283;22461;-63
2023/01/05 01:36:44;;;;;;;2.50;0.20;;;;;;;9.66;87.96;99524.35;102836;1305;22699;-61
2023/01/05 01:39:16;;;;;;;3.00;0.20;;;;;;;9.71;87.47;99521.00;102968;1281;25590;-62
2023/01/05 01:41:47;;;;;;;0.60;0.10;;;;;;;9.76;87.02;99514.33;102792;1282;24340;-62
2023/01/05 01:44:52;;;;;;;1.40;0.20;;;;;;;9.82;86.69;99516.11;102841;1284;24322;-62
2023/01/05 01:47:31;;;;;;;4.20;0.20;;;;;;;9.90;86.41;99518.56;102798;1300;24351;-62
2023/01/05 01:50:06;;;;;;;1.60;0.10;;;;;;;9.95;85.82;99513.70;102898;1305;22461;-63
2023/01/05 01:52:38;;;;;;;3.00;0.20;;;;;;;10.01;85.64;99513.65;103041;1284;25555;-61
2023/01/05 01:55:10;;;;;;;3.30;0.30;;;;;;;10.06;85.19;99513.15;102832;1283;22460;-61
2023/01/05 01:57:43;;;;;;;2.50;0.20;;;;;;;10.10;84.86;99518.33;102897;1283;26615;-64
2023/01/05 02:00:15;;;;;;;2.80;0.20;;;;;;;10.16;84.11;99517.58;102878;1284;24429;-62
2023/01/05 02:02:48;;;;;;;3.80;0.40;;;;;;;10.24;83.92;99516.44;102978;1283;22474;-63
2023/01/05 02:05:22;;;;;;;2.80;0.30;;;;;;;10.32;83.63;99520.65;102957;1276;22478;-63
2023/01/05 02:07:53;;;;;;;5.20;0.20;;;;;;;10.38;84.07;99513.55;102882;1276;22478;-62
2023/01/05 02:10:37;;;;;;;6.60;1.20;;;;;;;10.39;83.79;99522.95;102813;1283;22541;-64
2023/01/05 02:13:19;;;;;;;3.60;0.30;;;;;;;10.42;84.00;99528.00;102981;1283;24282;-62
2023/01/05 02:15:55;;;;;;;2.30;0.20;;;;;;;10.42;84.64;99512.52;103132;1305;22714;-63
2023/01/05 02:18:48;;;;;;;2.40;0.30;;;;;;;10.37;85.17;99506.14;103098;1275;24249;-61
2023/01/05 02:21:30;;;;;;;1.80;0.30;;;;;;;10.30;85.46;99514.41;103063;1284;22630;-62
2023/01/05 02:24:43;;;;;;;4.10;0.30;;;;;;;10.23;85.65;99516.88;103182;1305;24309;-62
2023/01/05 02:27:37;;;;;;;4.10;0.30;;;;;;;10.17;86.02;99509.42;103162;1284;22605;-63
2023/01/05 02:30:41;;;;;;;5.60;0.30;;;;;;;10.11;86.20;99504.44;102921;1305;23104;-62
2023/01/05 02:33:23;;;;;;;3.90;0.40;;;;;;;10.07;86.24;99502.05;102930;1283;25147;-63
2023/01/05 02:36:02;;;;;;;4.30;0.30;;;;;;;10.05;86.10;99503.27;103069;1284;22466;-63
2023/01/05 02:38:43;;;;;;;4.90;0.30;;;;;;;10.06;85.74;99501.64;103121;1283;22847;-62
2023/01/05 02:41:21;;;;;;;2.90;0.20;;;;;;;10.07;85.90;99499.67;102984;1275;23724;-63
2023/01/05 02:43:52;;;;;;;3.60;0.30;;;;;;;10.06;85.63;99492.92;103084;1281;22484;-62
2023/01/05 02:46:23;;;;;;;4.70;0.50;;;;;;;10.07;85.40;99492.67;103073;1283;22530;-62
2023/01/05 02:48:57;;;;;;;2.40;0.20;;;;;;;10.07;85.31;99484.71;102909;1305;24271;-63
2023/01/05 02:51:33;;;;;;;2.90;0.40;;;;;;;10.09;85.28;99478.75;102909;1305;25267;-62
2023/01/05 02:54:09;;;;;;;8.50;0.40;;;;;;;10.10;85.00;99486.38;102998;1283;25322;-62
2023/01/05 02:56:45;;;;;;;5.40;0.30;;;;;;;10.13;84.70;99487.27;102928;1305;24266;-62
2023/01/05 02:59:22;;;;;;;3.40;0.20;;;;;;;10.15;84.88;99482.48;102951;1305;22476;-63
2023/01/05 03:01:57;;;;;;;8.40;0.60;;;;;;;10.16;84.69;99484.80;102888;1296;25350;-62
2023/01/05 03:04:34;;;;;;;3.70;0.30;;;;;;;10.16;84.88;99493.30;103130;1280;24428;-61
2023/01/05 03:07:11;;;;;;;4.80;0.40;;;;;;;10.15;84.63;99507.99;103500;1305;24264;-63
2023/01/05 03:09:45;;;;;;;3.70;0.30;;;;;;;10.16;84.34;99508.51;102930;1305;22446;-62
2023/01/05 03:15:25;;;;;;;3.00;0.40;;;;;;;10.15;84.73;99516.62;103057;1277;24355;-61
2023/01/05 03:17:58;;;;;;;6.60;0.30;;;;;;;10.12;84.99;99518.46;103168;1283;23978;-62
2023/01/05 03:20:32;;;;;;;4.10;0.50;;;;;;;10.07;85.39;99523.61;103193;1283;25872;-61
2023/01/05 03:37:35;;;;;;;4.80;0.70;;;;;;;9.66;87.90;99514.21;102867;1276;25323;-63
2023/01/05 03:40:12;;;;;;;7.20;0.80;;;;;;;9.59;88.03;99516.71;102991;1293;22481;-63
2023/01/05 03:42:45;;;;;;;2.90;0.60;;;;;;;9.53;88.34;99518.38;103060;1288;23556;-63
2023/01/05 03:45:18;;;;;;;5.90;0.60;;;;;;;9.48;88.45;99519.33;103175;1306;22518;-62
2023/01/05 03:47:49;;;;;;;7.00;0.30;;;;;;;9.44;88.71;99512.49;103118;1291;24268;-62
2023/01/05 03:50:21;;;;;;;3.30;0.40;;;;;;;9.41;88.67;99510.94;103121;1296;24278;-60
2023/01/05 03:52:52;;;;;;;6.90;0.50;;;;;;;9.39;88.70;99508.60;103073;1275;22422;-62
2023/01/05 03:55:23;;;;;;;7.00;0.40;;;;;;;9.38;88.82;99507.50;102953;1299;25314;-61
2023/01/05 03:57:54;;;;;;;4.00;0.50;;;;;;;9.35;88.89;99510.88;102986;1305;24350;-63
2023/01/05 04:00:26;;;;;;;9.10;0.30;;;;;;;9.36;88.92;99529.96;102899;1290;26750;-61
2023/01/05 04:02:58;;;;;;;8.10;0.60;;;;;;;9.35;89.16;99538.16;102896;1283;24269;-63
2023/01/05 04:05:28;;;;;;;4.00;0.50;;;;;;;9.35;89.71;99532.18;102864;1284;22467;-64
2023/01/05 04:07:59;;;;;;;8.10;0.80;;;;;;;9.30;90.01;99523.56;102827;1305;22552;-64
2023/01/05 04:10:30;;;;;;;1.60;0.20;;;;;;;9.20;89.36;99523.65;102862;1284;22611;-63
2023/01/05 04:13:01;;;;;;;7.80;0.30;;;;;;;9.05;89.92;99536.86;102861;1305;22484;-62
2023/01/05 04:15:32;;;;;;;2.30;0.20;;;;;;;8.91;89.88;99537.08;103011;1305;24245;-60
2023/01/05 04:18:03;;;;;;;5.30;0.20;;;;;;;8.80;89.53;99502.55;103075;1291;24438;-63
2023/01/05 04:20:34;;;;;;;2.20;0.40;;;;;;;8.76;90.08;99529.80;103127;1284;22496;-62
2023/01/05 04:23:05;;;;;;;1.40;0.20;;;;;;;8.69;90.43;99539.32;103065;1284;22426;-63
2023/01/05 04:25:36;;;;;;;6.30;0.30;;;;;;;8.61;90.18;99544.37;103030;1305;24803;-65
2023/01/05 04:28:07;;;;;;;2.20;0.20;;;;;;;8.55;90.66;99539.26;102892;1283;22525;-64
2023/01/05 04:30:38;;;;;;;5.90;0.60;;;;;;;8.49;90.77;99531.38;103170;1305;22483;-63
2023/01/05 04:33:09;;;;;;;3.10;0.30;;;;;;;8.46;91.13;99537.35;102883;1277;25487;-64
2023/01/05 04:35:40;;;;;;;5.60;0.50;;;;;;;8.43;91.67;99539.17;102824;1305;24264;-64
2023/01/05 04:38:11;;;;;;;7.10;0.70;;;;;;;8.41;91.78;99548.04;102891;1300;23089;-64
2023/01/05 04:40:42;;;;;;;6.70;0.80;;;;;;;8.39;92.07;99545.32;102992;1299;24561;-64
2023/01/05 04:43:13;;;;;;;6.40;0.70;;;;;;;8.36;92.24;99547.70;102916;1305;24340;-65
2023/01/05 04:45:45;;;;;;;6.00;0.90;;;;;;;8.33;92.42;99549.58;102974;1290;24454;-64
2023/01/05 04:48:17;;;;;;;11.40;0.70;;;;;;;8.32;92.65;99547.33;102879;1283;22461;-63
2023/01/05 04:50:54;;;;;;;5.70;0.50;;;;;;;8.31;93.20;99536.20;103015;1298;24350;-64
2023/01/05 04:53:25;;;;;;;3.00;0.40;;;;;;;8.31;93.40;99533.75;102880;1305;25601;-62
2023/01/05 04:55:56;;;;;;;4.90;0.30;;;;;;;8.32;94.60;99518.51;103101;1291;22472;-62
2023/01/05 04:58:27;;;;;;;18.30;0.70;;;;;;;8.36;94.63;99524.42;103053;1280;22513;-62
2023/01/05 05:00:58;;;;;;;4.30;0.60;;;;;;;8.40;94.66;99518.54;103113;1297;24266;-62
2023/01/05 05:03:29;;;;;;;4.90;0.60;;;;;;;8.44;94.72;99508.99;103058;1306;24805;-61
2023/01/05 05:06:00;;;;;;;7.30;0.50;;;;;;;8.48;94.81;99519.42;103083;1283;24793;-61
2023/01/05 05:08:31;;;;;;;4.70;0.40;;;;;;;8.51;94.76;99524.53;103103;1305;22547;-64
2023/01/05 05:11:02;;;;;;;3.00;0.40;;;;;;;8.54;94.77;99527.15;103198;1277;22466;-62
2023/01/05 05:13:33;;;;;;;4.10;0.30;;;;;;;8.56;94.36;99532.29;102860;1290;22466;-59
2023/01/05 05:16:04;;;;;;;3.70;0.60;;;;;;;8.55;94.03;99533.04;102843;1305;22496;-63
2023/01/05 05:18:35;;;;;;;3.60;0.30;;;;;;;8.55;93.58;99534.86;102859;1280;22477;-63
2023/01/05 05:21:06;;;;;;;3.40;0.40;;;;;;;8.54;93.77;99539.30;102972;1285;22505;-63
2023/01/05 05:23:37;;;;;;;3.30;0.20;;;;;;;8.52;93.49;99537.84;102978;1305;24705;-62
2023/01/05 05:26:09;;;;;;;2.60;0.20;;;;;;;8.48;93.29;99534.39;103100;1280;24836;-62
2023/01/05 05:28:39;;;;;;;2.60;0.50;;;;;;;8.45;93.21;99530.23;104195;1291;22458;-63
2023/01/05 05:31:10;;;;;;;4.20;0.20;;;;;;;8.44;92.95;99519.20;103076;1280;22657;-63
2023/01/05 05:33:42;;;;;;;4.60;0.20;;;;;;;8.42;92.66;99528.27;103073;1305;22466;-62
2023/01/05 05:36:13;;;;;;;1.40;0.10;;;;;;;8.40;92.64;99534.91;103114;1305;23822;-61
2023/01/05 05:38:44;;;;;;;3.40;0.20;;;;;;;8.37;92.56;99541.14;102936;1281;22464;-61
2023/01/05 05:41:15;;;;;;;3.30;0.40;;;;;;;8.34;92.81;99548.98;103172;1305;25360;-61
2023/01/05 05:43:45;;;;;;;4.40;0.20;;;;;;;8.32;92.70;99549.20;103094;1305;22554;-62
2023/01/05 05:46:16;;;;;;;3.30;0.30;;;;;;;8.33;92.90;99550.83;103153;1305;26639;-60
2023/01/05 05:48:47;;;;;;;5.70;0.40;;;;;;;8.34;92.78;99555.95;103192;1305;22738;-61
2023/01/05 05:51:18;;;;;;;3.30;0.40;;;;;;;8.34;93.04;99555.95;103021;1305;22480;-61
2023/01/05 05:53:49;;;;;;;3.00;0.50;;;;;;;8.34;92.91;99551.15;102975;1299;24820;-59
2023/01/05 05:56:21;;;;;;;4.50;0.30;;;;;;;8.34;92.91;99548.88;102906;1276;22532;-60
2023/01/05 05:58:51;;;;;;;2.90;0.50;;;;;;;8.32;92.95;99549.70;103173;1285;22793;-60
2023/01/05 06:01:22;;;;;;;2.60;0.30;;;;;;;8.32;92.94;99554.66;103084;1284;22462;-63
2023/01/05 06:03:53;;;;;;;4.00;0.30;;;;;;;8.32;92.82;99556.63;102925;1305;25585;-68
2023/01/05 06:06:24;;;;;;;3.10;0.40;;;;;;;8.33;92.68;99567.27;102838;1281;22441;-69
2023/01/05 06:08:55;;;;;;;3.80;0.30;;;;;;;8.34;92.79;99569.71;102767;1297;24441;-70
2023/01/05 06:11:27;;;;;;;6.80;0.50;;;;;;;8.37;92.82;99558.54;102884;1280;24305;-73
2023/01/05 06:13:57;;;;;;;4.30;0.50;;;;;;;8.37;92.71;99556.82;102876;1283;22495;-68
2023/01/05 06:16:29;;;;;;;6.80;0.50;;;;;;;8.38;92.73;99565.43;102794;1305;22607;-70
2023/01/05 06:19:00;;;;;;;4.00;0.30;;;;;;;8.39;92.80;99567.71;102871;1305;25275;-68
2023/01/05 06:21:30;;;;;;;4.40;0.50;;;;;;;8.40;92.67;99564.91;102879;1284;22462;-69
2023/01/05 06:24:01;;;;;;;4.60;0.80;;;;;;;8.39;92.82;99564.94;102811;1281;25322;-67
2023/01/05 06:26:32;;;;;;;3.80;0.80;;;;;;;8.37;92.87;99565.41;102811;1284;24408;-68
2023/01/05 06:29:04;;;;;;;4.20;0.40;;;;;;;8.35;92.78;99568.16;102798;1284;24424;-68
2023/01/05 06:31:35;;;;;;;2.90;0.60;;;;;;;8.34;93.01;99574.05;102861;1284;24338;-68
2023/01/05 06:34:06;;;;;;;6.50;0.90;;;;;;;8.32;92.94;99568.81;103033;1283;24271;-71
2023/01/05 06:36:37;;;;;;;6.80;2.10;;;;;;;8.31;93.09;99571.11;102876;1283;24350;-67
2023/01/05 06:39:08;;;;;;;11.50;1.70;;;;;;;8.28;92.98;99568.05;102748;1284;22473;-68
2023/01/05 06:41:38;;;;;;;7.90;1.10;;;;;;;8.27;93.00;99569.48;102824;1280;22475;-68
2023/01/05 06:44:10;;;;;;;2.70;0.40;;;;;;;8.27;92.92;99570.44;102760;1277;25561;-72
2023/01/05 06:46:40;;;;;;;2.90;0.40;;;;;;;8.26;92.86;99574.67;103518;1277;24274;-72
2023/01/05 06:49:14;;;;;;;3.80;0.30;;;;;;;8.26;92.73;99571.50;103326;1283;22965;-70
2023/01/05 06:51:44;;;;;;;3.40;0.40;;;;;;;8.26;92.78;99572.45;103259;1305;22574;-70
2023/01/05 06:54:15;;;;;;;3.00;0.30;;;;;;;8.27;92.76;99575.30;103314;1282;22459;-71
2023/01/05 06:56:46;;;;;;;6.80;0.50;;;;;;;8.29;92.62;99575.09;103365;1305;22477;-70
2023/01/05 06:59:17;;;;;;;4.70;0.80;;;;;;;8.32;92.83;99577.00;103279;1284;24871;-71
2023/01/05 07:01:48;;;;;;;7.60;0.80;;;;;;;8.34;92.68;99581.17;103516;1300;25317;-73
2023/01/05 07:04:19;;;;;;;4.80;0.60;;;;;;;8.37;92.57;99570.52;103339;1283;24538;-71
2023/01/05 07:06:50;;;;;;;5.80;0.50;;;;;;;8.41;92.60;99578.83;103313;1290;22608;-71
2023/01/05 07:09:21;;;;;;;5.30;0.50;;;;;;;8.43;92.62;99575.73;103303;1283;27490;-70
2023/01/05 07:11:52;;;;;;;4.70;0.40;;;;;;;8.46;92.56;99579.81;103357;1284;22478;-71
2023/01/05 07:14:23;;;;;;;5.90;0.50;;;;;;;8.48;92.59;99579.27;103511;1283;22464;-67
2023/01/05 07:16:54;;;;;;;6.40;0.40;;;;;;;8.50;92.65;99582.98;103024;1277;22857;-69
2023/01/05 07:19:25;;;;;;;5.20;0.70;;;;;;;8.52;92.53;99580.69;103036;1305;24334;-67
2023/01/05 07:21:57;;;;;;;10.80;0.90;;;;;;;8.55;92.49;99581.08;103083;1280;22535;-69
2023/01/05 07:24:28;;;;;;;6.80;0.70;;;;;;;8.58;92.35;99587.31;102791;1284;22469;-67
2023/01/05 07:27:00;;;;;;;11.70;1.60;;;;;;;8.60;92.51;99586.58;102828;1284;22474;-68
2023/01/05 07:29:31;;;;;;;7.20;0.70;;;;;;;8.61;92.40;99589.69;103104;1284;22468;-69
2023/01/05 07:32:02;;;;;;;9.50;1.60;;;;;;;8.62;92.33;99586.86;102831;1284;25356;-68
2023/01/05 07:34:33;;;;;;;5.20;0.80;;;;;;;8.64;92.39;99589.08;102930;1277;22621;-73
2023/01/05 07:37:04;;;;;;;5.40;0.60;;;;;;;8.65;92.35;99592.54;103315;1280;24425;-71
2023/01/05 07:39:35;;;;;;;8.30;0.50;;;;;;;8.66;92.47;99593.31;103425;1283;22472;-71
2023/01/05 07:42:06;;;;;;;6.80;0.50;;;;;;;8.68;92.37;99595.36;103311;1283;22595;-72
2023/01/05 07:44:37;;;;;;;5.70;0.60;;;;;;;8.70;92.34;99597.93;103357;1277;23659;-70
2023/01/05 07:47:08;;;;;;;3.80;0.40;;;;;;;8.72;92.33;99598.21;103490;1281;22562;-69
2023/01/05 07:49:39;;;;;;;7.10;0.50;;;;;;;8.73;92.25;99594.48;103400;1277;22585;-69
2023/01/05 07:52:10;;;;;;;7.10;0.70;;;;;;;8.76;92.30;99597.77;103293;1281;23409;-70
2023/01/05 07:54:41;;;;;;;8.00;0.50;;;;;;;8.78;92.34;99596.30;103275;1305;22466;-62
2023/01/05 07:57:12;;;;;;;9.50;0.90;;;;;;;8.82;92.13;99600.66;103144;1284;22765;-60
2023/01/05 07:59:43;;;;;;;3.90;0.60;;;;;;;8.86;92.17;99602.20;103149;1277;24313;-62
2023/01/05 08:02:14;;;;;;;8.30;0.90;;;;;;;8.91;92.03;99603.11;103176;1277;22537;-61
2023/01/05 08:04:45;;;;;;;7.00;1.10;;;;;;;8.94;92.06;99600.17;103131;1276;25257;-62
2023/01/05 08:07:16;;;;;;;7.70;0.70;;;;;;;8.97;91.86;99607.61;103062;1280;25605;-61
2023/01/05 08:13:58;;;;;;;4.70;0.40;;;;;;;9.04;91.74;99606.55;103050;1277;24281;-61
2023/01/05 08:15:26;;;;;;;8.30;1.50;;;;;;;9.07;91.42;99608.05;103040;1285;22470;-61
2023/01/05 08:17:57;;;;;;;7.70;0.60;;;;;;;9.09;91.44;99604.29;103072;1305;24849;-62
2023/01/05 08:20:28;;;;;;;6.20;1.00;;;;;;;9.10;91.34;99605.08;103152;1283;22464;-61
2023/01/05 08:22:59;;;;;;;5.20;0.60;;;;;;;9.11;91.32;99608.58;103093;1284;22895;-61
2023/01/05 08:25:30;;;;;;;6.80;0.50;;;;;;;9.13;91.01;99610.38;103068;1283;22466;-62
2023/01/05 08:28:02;;;;;;;6.90;1.00;;;;;;;9.17;91.19;99609.46;103015;1305;24246;-61
2023/01/05 08:30:33;;;;;;;7.50;0.80;;;;;;;9.19;90.60;99612.25;103008;1290;22472;-59
2023/01/05 08:33:05;;;;;;;4.00;0.50;;;;;;;9.23;90.50;99616.99;106780;1281;22282;-61
2023/01/05 08:35:39;;;;;;;6.30;0.60;;;;;;;9.25;90.32;99618.91;106798;1277;22213;-61
2023/01/05 08:38:10;;;;;;;7.00;0.60;;;;;;;9.28;90.13;99616.42;106794;1277;23017;-61
2023/01/05 08:40:41;;;;;;;5.90;0.60;;;;;;;9.32;90.10;99615.50;106830;1284;23041;-61
2023/01/05 08:43:12;;;;;;;3.90;0.40;;;;;;;9.35;89.89;99620.11;107130;1282;22247;-60
2023/01/05 08:45:47;;;;;;;7.00;0.80;;;;;;;9.38;89.45;99615.45;105965;1305;24223;-60
2023/01/05 08:48:18;;;;;;;8.80;2.20;;;;;;;9.43;89.41;99615.90;103043;1284;23213;-61
2023/01/05 08:50:49;;;;;;;8.20;1.10;;;;;;;9.47;89.19;99619.27;103260;1284;22472;-60
2023/01/05 08:53:20;;;;;;;10.30;1.60;;;;;;;9.50;88.88;99621.22;103048;1284;22515;-60
2023/01/05 08:55:51;;;;;;;5.50;1.00;;;;;;;9.53;88.32;99620.96;102867;1299;24349;-60
2023/01/05 08:58:22;;;;;;;6.10;0.70;;;;;;;9.57;88.28;99627.95;102989;1283;22463;-61
2023/01/05 09:00:53;;;;;;;7.00;0.90;;;;;;;9.59;88.17;99623.43;102867;1305;26627;-60
2023/01/05 09:03:24;;;;;;;5.70;0.80;;;;;;;9.61;88.19;99624.63;103069;1276;23934;-61
2023/01/05 09:06:01;;;;;;;6.20;0.70;;;;;;;9.62;87.98;99621.53;102986;1281;22585;-61
2023/01/05 09:08:33;;;;;;;7.20;0.90;;;;;;;9.62;87.62;99631.63;103133;1277;22472;-60
2023/01/05 09:11:12;;;;;;;7.00;0.80;;;;;;;9.63;87.44;99634.48;102959;1283;22464;-60
2023/01/05 09:13:45;;;;;;;6.70;1.10;;;;;;;9.64;87.09;99634.38;103096;1284;22478;-60
2023/01/05 09:16:19;;;;;;;10.50;1.30;;;;;;;9.66;86.57;99627.20;103089;1283;24809;-63
2023/01/05 09:18:50;;;;;;;15.80;1.40;;;;;;;9.68;86.96;99623.44;103158;1305;24299;-62
2023/01/05 09:21:21;;;;;;;5.10;0.70;;;;;;;9.68;86.52;99631.59;102861;1281;22473;-62
2023/01/05 09:23:52;;;;;;;9.60;0.80;;;;;;;9.69;86.18;99631.70;103055;1283;22478;-62
2023/01/05 09:26:23;;;;;;;8.50;0.80;;;;;;;9.70;85.79;99631.63;103035;1284;22706;-60
2023/01/05 09:28:54;;;;;;;11.40;1.30;;;;;;;9.73;85.97;99634.70;102965;1304;23146;-61
2023/01/05 09:31:25;;;;;;;7.50;0.80;;;;;;;9.75;86.40;99638.36;102894;1284;25668;-60
2023/01/05 09:33:57;;;;;;;4.20;0.50;;;;;;;9.74;86.32;99635.63;102861;1305;22452;-61
2023/01/05 09:36:28;;;;;;;10.20;0.80;;;;;;;9.73;85.93;99639.86;102890;1280;23315;-63
2023/01/05 09:38:59;;;;;;;7.70;0.80;;;;;;;9.72;86.14;99650.44;102865;1281;22477;-61
2023/01/05 09:41:34;;;;;;;3.90;0.50;;;;;;;9.69;85.68;99655.52;102862;1283;22480;-60
2023/01/05 09:44:12;;;;;;;6.60;0.50;;;;;;;9.66;86.15;99656.87;103181;1277;24340;-63
2023/01/05 09:46:46;;;;;;;9.60;0.70;;;;;;;9.62;86.65;99673.32;102955;1284;24351;-60
2023/01/05 09:49:22;;;;;;;8.40;0.80;;;;;;;9.54;87.66;99675.94;102960;1280;22492;-58
2023/01/05 09:51:58;;;;;;;8.30;1.00;;;;;;;9.42;88.27;99682.10;102902;1300;22572;-61
2023/01/05 09:54:33;;;;;;;4.80;0.80;;;;;;;9.33;88.89;99679.59;103043;1287;22480;-60
2023/01/05 09:57:06;;;;;;;5.10;1.20;;;;;;;9.25;88.93;99681.27;102905;1296;22555;-62
2023/01/05 09:59:39;;;;;;;8.20;0.60;;;;;;;9.19;89.40;99686.05;102904;1305;24312;-59
2023/01/05 10:02:18;;;;;;;8.40;0.90;;;;;;;9.15;89.78;99680.68;102965;1296;22463;-59
2023/01/05 10:04:50;;;;;;;12.50;1.10;;;;;;;9.14;90.09;99685.68;102868;1285;23921;-59
2023/01/05 10:07:32;;;;;;;8.30;1.00;;;;;;;9.14;90.37;99676.16;102835;1305;22498;-59
2023/01/05 10:10:12;;;;;;;8.90;1.30;;;;;;;9.15;90.50;99671.47;102836;1300;22522;-57
2023/01/05 10:13:03;;;;;;;12.80;1.00;;;;;;;9.18;90.48;99669.13;102860;1305;24295;-58
2023/01/05 10:15:40;;;;;;;7.90;0.80;;;;;;;9.21;90.54;99662.30;102906;1279;22480;-60
2023/01/05 10:18:14;;;;;;;6.90;0.80;;;;;;;9.22;89.94;99663.17;102946;1284;24508;-60
2023/01/05 10:20:59;;;;;;;8.00;0.80;;;;;;;9.23;89.75;99663.39;103155;1283;24316;-60
2023/01/05 10:23:43;;;;;;;10.90;1.30;;;;;;;9.22;89.98;99659.70;102993;1305;23103;-56
2023/01/05 10:26:21;;;;;;;13.50;2.60;;;;;;;9.21;89.69;99653.38;103090;1306;23167;-64
2023/01/05 10:28:57;;;;;;;10.00;1.20;;;;;;;9.22;89.69;99644.28;102961;1284;25993;-61
2023/01/05 10:31:54;;;;;;;10.10;1.50;;;;;;;9.23;89.64;99639.70;102967;1285;24269;-61
2023/01/05 10:34:34;;;;;;;9.90;1.30;;;;;;;9.22;89.39;99627.63;103120;1291;25238;-62
2023/01/05 10:37:22;;;;;;;8.90;1.70;;;;;;;9.23;88.87;99625.66;102986;1305;24983;-63
2023/01/05 10:40:14;;;;;;;4.90;0.70;;;;;;;9.24;88.99;99627.59;102814;1305;23394;-59
2023/01/05 10:42:55;;;;;;;11.50;1.70;;;;;;;9.25;88.75;99622.45;102913;1305;22459;-61
2023/01/05 10:45:26;;;;;;;;;;;;;;;9.26;88.74;99626.92;103125;1284;22567;-62
2023/01/05 10:47:58;;;;;;;10.10;0.70;;;;;;;9.28;88.05;99675.17;102846;1306;22472;-61
2023/01/05 10:50:36;;;;;;;2.60;0.30;;;;;;;9.08;86.30;99705.79;102895;1281;25400;-63
2023/01/05 10:53:12;;;;;;;3.80;0.40;;;;;;;8.16;87.25;99731.04;102953;1277;22610;-63
2023/01/05 10:55:57;;;;;;;6.20;0.30;;;;;;;7.41;90.03;99733.68;102896;1305;25321;-64
2023/01/05 10:58:30;;;;;;;3.40;0.50;;;;;;;7.11;92.06;99728.63;102793;1305;22471;-63
2023/01/05 11:01:04;;;;;;;0.70;0.10;;;;;;;7.00;93.38;99729.14;102909;1297;23147;-63
2023/01/05 11:03:42;;;;;;;3.20;0.20;;;;;;;6.94;93.52;99724.36;102977;1305;24224;-63
2023/01/05 11:06:22;;;;;;;3.10;0.10;;;;;;;6.90;93.61;99718.02;103159;1284;25225;-61
2023/01/05 11:08:54;;;;;;;1.80;0.20;;;;;;;6.90;93.37;99717.77;102813;1284;22623;-62
2023/01/05 11:11:26;;;;;;;1.80;0.10;;;;;;;6.91;93.56;99713.23;102919;1305;22460;-62
2023/01/05 11:13:59;;;;;;;0.40;0.10;;;;;;;6.91;93.48;99707.41;102855;1277;23995;-63
2023/01/05 11:16:34;;;;;;;1.90;0.20;;;;;;;6.93;93.61;99707.18;102921;1274;22514;-63
2023/01/05 11:19:07;;;;;;;1.00;0.10;;;;;;;6.94;93.44;99711.16;102814;1290;22478;-64
2023/01/05 11:21:44;;;;;;;1.50;0.10;;;;;;;6.96;93.93;99713.00;102919;1280;22470;-66
2023/01/05 11:24:33;;;;;;;0.70;0.00;;;;;;;6.96;94.08;99705.45;102981;1291;22456;-66
2023/01/05 11:27:23;;;;;;;3.40;0.50;;;;;;;6.95;94.19;99704.61;102879;1305;24795;-64
2023/01/05 11:30:20;;;;;;;3.30;0.30;;;;;;;6.95;94.32;99708.38;103107;1288;22467;-65
2023/01/05 11:32:51;;;;;;;1.40;0.20;;;;;;;6.94;94.39;99705.70;103014;1305;23232;-64
2023/01/05 11:35:30;;;;;;;1.50;0.20;;;;;;;6.93;94.96;99714.55;102983;1284;25518;-64
2023/01/05 11:38:01;;;;;;;1.60;0.20;;;;;;;6.91;95.06;99731.27;102830;1280;25568;-64
2023/01/05 11:40:35;;;;;;;3.30;0.30;;;;;;;6.90;95.32;99737.05;102862;1280;25560;-63
2023/01/05 11:43:13;;;;;;;2.40;0.30;;;;;;;6.89;95.42;99723.03;102878;1306;22480;-63
2023/01/05 11:45:49;;;;;;;1.20;0.20;;;;;;;6.89;95.55;99713.75;103046;1284;22464;-61
2023/01/05 11:48:24;;;;;;;5.50;0.50;;;;;;;6.90;95.88;99708.83;103040;1285;24565;-62
2023/01/05 11:50:58;;;;;;;3.10;0.40;;;;;;;6.90;96.25;99710.56;102962;1291;22464;-60
2023/01/05 11:53:38;;;;;;;1.20;0.30;;;;;;;6.93;96.12;99719.91;102872;1305;22488;-60
2023/01/05 11:56:21;;;;;;;3.60;0.50;;;;;;;6.97;96.63;99719.44;102903;1284;22469;-60
2023/01/05 11:58:54;;;;;;;2.10;0.30;;;;;;;7.01;96.61;99725.90;102923;1277;22476;-60
2023/01/05 12:01:45;;;;;;;3.70;0.50;;;;;;;7.05;96.95;99728.89;102907;1310;25228;-60
2023/01/05 12:04:30;;;;;;;6.00;0.40;;;;;;;7.08;96.89;99718.36;102856;1283;25266;-59
2023/01/05 12:07:21;;;;;;;5.80;0.50;;;;;;;7.09;96.51;99717.68;102880;1299;25253;-60
2023/01/05 12:09:59;;;;;;;3.10;0.50;;;;;;;7.08;96.44;99716.91;103008;1281;25655;-60
2023/01/05 12:12:45;;;;;;;9.90;1.50;;;;;;;7.09;96.53;99713.09;103122;1291;23815;-60
2023/01/05 12:15:35;;;;;;;4.20;0.50;;;;;;;7.10;96.78;99718.66;102923;1283;22455;-60
2023/01/05 12:18:18;;;;;;;2.10;0.40;;;;;;;7.13;96.88;99729.84;102797;1284;24341;-60
2023/01/05 12:20:58;;;;;;;3.00;0.70;;;;;;;7.18;97.16;99729.55;102966;1305;22465;-59
2023/01/05 12:24:14;;;;;;;4.90;0.60;;;;;;;7.25;97.37;99735.70;102919;1281;24346;-59
2023/01/05 12:26:58;;;;;;;3.50;0.50;;;;;;;7.35;97.53;99741.12;102212;1291;24338;-60
2023/01/05 12:30:03;;;;;;;4.90;0.60;;;;;;;7.44;97.62;99749.25;102218;1290;22711;-61
2023/01/05 12:32:49;;;;;;;3.50;0.60;;;;;;;7.53;97.73;99746.52;101702;1306;22499;-60
2023/01/05 12:35:42;;;;;;;3.90;0.40;;;;;;;7.58;97.69;99748.20;101726;1297;24502;-61
2023/01/05 12:38:32;;;;;;;6.00;0.50;;;;;;;7.61;97.54;99762.17;101704;1296;24428;-59